Airfield :
LOGIN :

Register | Disclaimer

   EN    FR    IT 

 










Legend :    VFR   Marginal VFR   IFR   Intensive IFR   Very Intensive IFR
Visi :
Ceiling :
>= 8 km
>= 3000ft
5 to 8 km
1000 to 3000 ft
1500m to 5 km
500 to 1000 ft
800 to 1500m
200 to 500 ft
< 800m
< 200 ft
Symbols :   Thunderstorms  Fog  Heavy snow  Heavy precipitations  Wind > 20 kt
SIGMETs :     Misc.  Thunderstorms  Icing  Turbulence  Mountain Waves  Volcanic Ashes







- Airport Elevation : 364 ft
- IATA code : FRA


EDDF - Frankfurt Int.

CURRENT METAR :
  • 241020Z 21017KT 9999 FEW040 BKN280 17/07 Q1018 NOSIG

EXPIRED METARs :
  • 240950Z 23014KT 200V260 9999 FEW036 BKN280 17/08 Q1018 NOSIG
  • 240920Z 22015KT 9999 FEW033 BKN280 16/08 Q1018 NOSIG
  • 240850Z 24014KT 210V270 9999 FEW032 OVC280 16/08 Q1018 NOSIG
  • 240820Z 23013KT 200V260 9999 FEW030 BKN300 15/08 Q1018 NOSIG
  • 240750Z 22010KT 9999 FEW025 BKN300 15/09 Q1019 NOSIG

TAF TAF EDDF
Valid from the 24 at 06:00 until the 25 at 12:00 UTC


240500Z 2406/2512 24008KT CAVOK
PROB30
TEMPO 2410/2416 25015G25KT
TEMPO 2420/2506 VRB03KT
BECMG 2506/2509 25015G25KT
No reported NOTAMs for that airfield.



MET'MAP, your aeronautical weather chart ! - Copyright ORBIFLY December 2007 - Disclaimer

ORBIFLY MET'MAP TEAM :

Programming & Development : Alexandra Zaïnal
Concept & Development : Baudouin d'Aumeries
Co-Development & Prog : Marc-Olivier Méhu
Technical & hardware support : Manuel Goepfert

Contact : metmap@orbifly.com




SOURCES & CREDITS :

   NOAA